Time;durP1;ratioP1;P1;durP2;ratioP2;P2;SDS_P1;SDS_P2;PMS_P1;PMS_P2;Temp;Humidity;BMP_temperature;BMP_pressure;BME280_temperature;BME280_humidity;BME280_pressure;Samples;Min_cycle;Max_cycle;Signal;HPM_P1;HPM_P2
2023/07/10 00:01:58;;;;;;;;;;;;;;;;;;5072353;28;20124;-64
2023/07/10 00:04:23;;;;;;;24.10;19.40;;;;;;;;;;5073528;28;19999;-65
2023/07/10 00:06:48;;;;;;;23.50;18.37;;;;;;;;;;5072301;28;20037;-64
2023/07/10 00:09:14;;;;;;;25.47;18.43;;;;;;;;;;5073145;28;20429;-65
2023/07/10 00:11:40;;;;;;;20.58;18.40;;;;;;;;;;5072011;28;20503;-64
2023/07/10 00:14:06;;;;;;;32.22;22.38;;;;;;;;;;5073216;28;20062;-65
2023/07/10 00:16:31;;;;;;;23.98;20.77;;;;;;;;;;5071970;28;20060;-64
2023/07/10 00:18:56;;;;;;;26.03;21.83;;;;;;;;;;5073115;28;20098;-65
2023/07/10 00:21:21;;;;;;;22.98;20.48;;;;;;;;;;5071252;28;20407;-65
2023/07/10 00:23:47;;;;;;;25.15;20.83;;;;;;;;;;5073470;28;20009;-64
2023/07/10 00:26:15;;;;;;;28.75;21.00;;;;;;;;;;5070999;28;20444;-64
2023/07/10 00:28:40;;;;;;;27.27;23.88;;;;;;;;;;5073143;28;20019;-64
2023/07/10 00:31:07;;;;;;;28.73;22.77;;;;;;;;;;5072385;28;20095;-62
2023/07/10 00:33:32;;;;;;;27.83;22.85;;;;;;;;;;5072636;28;20013;-64
2023/07/10 00:35:57;;;;;;;25.63;21.40;;;;;;;;;;5072068;28;20051;-64
2023/07/10 00:38:29;;;;;;;30.70;24.27;;;;;;;;;;5071719;28;20036;-64
2023/07/10 00:40:55;;;;;;;29.77;23.60;;;;;;;;;;5072307;28;20104;-64
2023/07/10 00:43:39;;;;;;;23.88;21.00;;;;;;;;;;5071618;28;20120;-64
2023/07/10 00:46:21;;;;;;;28.33;24.52;;;;;;;;;;5072600;28;20481;-65
2023/07/10 00:48:52;;;;;;;28.27;22.05;;;;;;;;;;5071621;28;20032;-65
2023/07/10 00:51:26;;;;;;;26.60;23.75;;;;;;;;;;5071197;28;20021;-65
2023/07/10 00:53:52;;;;;;;26.35;22.27;;;;;;;;;;5072131;28;20095;-65
2023/07/10 00:56:18;;;;;;;22.92;19.92;;;;;;;;;;5070952;28;20471;-65
2023/07/10 00:58:44;;;;;;;28.17;21.45;;;;;;;;;;5072603;28;20013;-65
2023/07/10 01:01:11;;;;;;;28.20;23.60;;;;;;;;;;5070710;28;20023;-64
2023/07/10 01:03:37;;;;;;;37.10;27.40;;;;;;;;;;5072568;28;20016;-65
2023/07/10 01:06:12;;;;;;;30.90;23.63;;;;;;;;;;5072225;28;20187;-66
2023/07/10 01:08:39;;;;;;;26.65;23.05;;;;;;;;;;5070654;28;20028;-66
2023/07/10 01:11:05;;;;;;;32.42;22.65;;;;;;;;;;5072300;28;20059;-66
2023/07/10 01:13:30;;;;;;;27.73;22.50;;;;;;;;;;5070550;28;20056;-67
2023/07/10 01:15:55;;;;;;;28.38;23.40;;;;;;;;;;5071474;28;20426;-66
2023/07/10 01:18:20;;;;;;;25.93;19.93;;;;;;;;;;5070924;28;20391;-66
2023/07/10 01:20:46;;;;;;;35.90;24.50;;;;;;;;;;5072194;28;20142;-66
2023/07/10 01:23:11;;;;;;;34.60;23.73;;;;;;;;;;5070061;28;20029;-66
2023/07/10 01:25:50;;;;;;;30.70;22.83;;;;;;;;;;5072044;28;20012;-66
2023/07/10 01:28:17;;;;;;;29.90;24.35;;;;;;;;;;5070415;28;20041;-66
2023/07/10 01:30:43;;;;;;;29.48;21.52;;;;;;;;;;5071733;28;20029;-64
2023/07/10 01:33:28;;;;;;;27.25;22.65;;;;;;;;;;5070132;28;20044;-64
2023/07/10 01:35:54;;;;;;;27.70;21.90;;;;;;;;;;5071438;28;20044;-64
2023/07/10 01:38:20;;;;;;;30.55;21.88;;;;;;;;;;5070082;28;20032;-64
2023/07/10 01:40:49;;;;;;;25.95;19.92;;;;;;;;;;5071892;28;20345;-64
2023/07/10 01:43:14;;;;;;;26.70;21.35;;;;;;;;;;5069887;28;20522;-64
2023/07/10 01:45:43;;;;;;;21.33;18.07;;;;;;;;;;5071386;28;20013;-65
2023/07/10 01:48:09;;;;;;;32.15;20.20;;;;;;;;;;5070070;28;20399;-64
2023/07/10 01:50:35;;;;;;;26.33;21.48;;;;;;;;;;5071682;28;20020;-65
2023/07/10 01:53:00;;;;;;;26.25;21.35;;;;;;;;;;5069363;28;20080;-64
2023/07/10 01:55:26;;;;;;;27.57;20.67;;;;;;;;;;5071750;28;20012;-73
2023/07/10 01:57:51;;;;;;;32.88;22.27;;;;;;;;;;5069988;28;20036;-63
2023/07/10 02:00:17;;;;;;;30.23;21.90;;;;;;;;;;5070831;28;20113;-64
2023/07/10 02:02:42;;;;;;;23.90;20.02;;;;;;;;;;5069909;28;20380;-63
2023/07/10 02:05:07;;;;;;;28.27;22.17;;;;;;;;;;5071006;28;20095;-64
2023/07/10 02:07:32;;;;;;;25.52;21.45;;;;;;;;;;5069757;28;20032;-63
2023/07/10 02:09:57;;;;;;;28.13;22.00;;;;;;;;;;5070889;28;20116;-62
2023/07/10 02:12:23;;;;;;;30.75;19.67;;;;;;;;;;5069503;28;20043;-63
2023/07/10 02:14:48;;;;;;;26.13;19.85;;;;;;;;;;5071355;28;20361;-62
2023/07/10 02:17:13;;;;;;;27.92;22.00;;;;;;;;;;5069102;28;20037;-62
2023/07/10 02:19:38;;;;;;;27.63;21.37;;;;;;;;;;5071214;28;20025;-62
2023/07/10 02:22:03;;;;;;;29.30;22.00;;;;;;;;;;5069540;28;20029;-63
2023/07/10 02:24:29;;;;;;;27.10;21.23;;;;;;;;;;5070715;28;20025;-63
2023/07/10 02:26:54;;;;;;;25.57;21.07;;;;;;;;;;5069439;28;20028;-63
2023/07/10 02:29:19;;;;;;;36.45;24.70;;;;;;;;;;5071195;28;20020;-62
2023/07/10 02:31:44;;;;;;;25.85;22.42;;;;;;;;;;5068068;28;20039;-62
2023/07/10 02:34:09;;;;;;;36.53;24.70;;;;;;;;;;5070613;28;20032;-64
2023/07/10 02:36:34;;;;;;;36.50;24.87;;;;;;;;;;5069401;28;20082;-63
2023/07/10 02:39:00;;;;;;;31.57;24.27;;;;;;;;;;5070301;28;20847;-64
2023/07/10 02:41:25;;;;;;;32.23;25.27;;;;;;;;;;5068689;28;20017;-63
2023/07/10 02:43:50;;;;;;;39.80;26.02;;;;;;;;;;5069253;28;20089;-63
2023/07/10 02:46:15;;;;;;;29.98;23.17;;;;;;;;;;5068844;28;20021;-63
2023/07/10 02:48:40;;;;;;;34.35;23.75;;;;;;;;;;5071147;28;20459;-64
2023/07/10 02:51:06;;;;;;;30.87;26.50;;;;;;;;;;5062617;28;20020;-64
2023/07/10 02:53:31;;;;;;;28.43;22.73;;;;;;;;;;5048857;28;20037;-64
2023/07/10 02:55:56;;;;;;;33.50;26.38;;;;;;;;;;5050416;28;20021;-63
2023/07/10 02:58:22;;;;;;;34.65;23.67;;;;;;;;;;5049387;28;20033;-64
2023/07/10 03:00:56;;;;;;;33.50;24.77;;;;;;;;;;5050374;28;20017;-68
2023/07/10 03:03:21;;;;;;;41.15;27.30;;;;;;;;;;5048820;28;20116;-63
2023/07/10 03:05:52;;;;;;;36.17;25.43;;;;;;;;;;5050550;28;20041;-64
2023/07/10 03:08:17;;;;;;;38.63;26.00;;;;;;;;;;5048643;28;20029;-64
2023/07/10 03:10:42;;;;;;;30.90;23.25;;;;;;;;;;5050536;28;20029;-64
2023/07/10 03:13:07;;;;;;;30.08;22.00;;;;;;;;;;5062882;28;20029;-64
2023/07/10 03:15:32;;;;;;;30.73;24.85;;;;;;;;;;5070390;28;20025;-64
2023/07/10 03:17:57;;;;;;;31.65;23.65;;;;;;;;;;5068789;28;20076;-63
2023/07/10 03:20:22;;;;;;;42.40;25.90;;;;;;;;;;5070976;28;20427;-63
2023/07/10 03:22:49;;;;;;;37.13;27.10;;;;;;;;;;5055217;28;20047;-63
2023/07/10 03:25:14;;;;;;;28.23;23.83;;;;;;;;;;5050247;28;20472;-63
2023/07/10 03:27:39;;;;;;;38.80;27.23;;;;;;;;;;5049179;28;20033;-63
2023/07/10 03:30:05;;;;;;;33.53;26.27;;;;;;;;;;5049696;28;20029;-63
2023/07/10 03:32:30;;;;;;;28.95;22.80;;;;;;;;;;5048880;28;20159;-63
2023/07/10 03:34:57;;;;;;;36.83;24.30;;;;;;;;;;5049776;28;20017;-64
2023/07/10 03:37:22;;;;;;;38.70;27.88;;;;;;;;;;5048688;28;20033;-64
2023/07/10 03:39:47;;;;;;;32.78;24.30;;;;;;;;;;5050328;28;20032;-64
2023/07/10 03:42:12;;;;;;;34.97;25.67;;;;;;;;;;5049835;28;20041;-63
2023/07/10 03:44:38;;;;;;;44.78;26.65;;;;;;;;;;5049816;28;20969;-63
2023/07/10 03:47:03;;;;;;;30.57;25.87;;;;;;;;;;5048758;28;20029;-63
2023/07/10 03:49:28;;;;;;;32.70;23.75;;;;;;;;;;5050239;28;20376;-64
2023/07/10 03:51:53;;;;;;;31.38;25.00;;;;;;;;;;5047952;28;20040;-63
2023/07/10 03:54:18;;;;;;;30.07;25.03;;;;;;;;;;5050044;28;20025;-63
2023/07/10 03:56:43;;;;;;;30.17;22.67;;;;;;;;;;5051419;28;20463;-62
2023/07/10 03:59:09;;;;;;;26.63;21.97;;;;;;;;;;5053352;28;20108;-62
2023/07/10 04:01:34;;;;;;;30.55;24.13;;;;;;;;;;5053677;28;20542;-61
2023/07/10 04:03:59;;;;;;;24.23;20.65;;;;;;;;;;5053576;28;20656;-62
2023/07/10 04:06:25;;;;;;;26.53;23.27;;;;;;;;;;5051802;28;20453;-62
2023/07/10 04:08:50;;;;;;;29.67;21.37;;;;;;;;;;5053878;28;20079;-73
2023/07/10 04:11:20;;;;;;;32.97;21.43;;;;;;;;;;5051801;28;20495;-63
2023/07/10 04:13:46;;;;;;;32.13;23.17;;;;;;;;;;5066489;28;20458;-64
2023/07/10 04:16:16;;;;;;;25.45;21.85;;;;;;;;;;5054163;28;20468;-65
2023/07/10 04:18:42;;;;;;;30.33;19.77;;;;;;;;;;5054443;28;20384;-65
2023/07/10 04:21:11;;;;;;;27.55;19.88;;;;;;;;;;5057210;28;20027;-65
2023/07/10 04:23:36;;;;;;;24.95;21.35;;;;;;;;;;5071534;28;20119;-65
2023/07/10 04:26:01;;;;;;;30.27;20.63;;;;;;;;;;5072449;28;20023;-65
2023/07/10 04:28:27;;;;;;;26.47;20.90;;;;;;;;;;5071327;28;20036;-65
2023/07/10 04:30:53;;;;;;;23.30;18.93;;;;;;;;;;5073015;28;20111;-65
2023/07/10 04:33:18;;;;;;;31.73;19.52;;;;;;;;;;5070586;28;20086;-65
2023/07/10 04:35:44;;;;;;;24.88;18.50;;;;;;;;;;5072376;28;20041;-65
2023/07/10 04:38:09;;;;;;;25.52;16.77;;;;;;;;;;5071341;28;20051;-67
2023/07/10 04:40:34;;;;;;;22.45;16.67;;;;;;;;;;5073168;28;20016;-65
2023/07/10 04:43:01;;;;;;;22.67;17.67;;;;;;;;;;5055640;28;20492;-65
2023/07/10 04:45:26;;;;;;;22.33;17.67;;;;;;;;;;5053295;28;20028;-70
2023/07/10 04:47:51;;;;;;;29.63;16.60;;;;;;;;;;5051454;28;20407;-65
2023/07/10 04:50:17;;;;;;;19.88;15.15;;;;;;;;;;5052427;28;20044;-65
2023/07/10 04:52:42;;;;;;;19.17;13.85;;;;;;;;;;5051129;28;20404;-65
2023/07/10 04:55:07;;;;;;;18.92;13.32;;;;;;;;;;5052584;28;20072;-65
2023/07/10 04:57:32;;;;;;;17.17;13.55;;;;;;;;;;5051250;28;20052;-65
2023/07/10 04:59:58;;;;;;;18.27;12.90;;;;;;;;;;5052241;28;20107;-65
2023/07/10 05:02:23;;;;;;;19.47;13.93;;;;;;;;;;5051387;28;20044;-65
2023/07/10 05:04:48;;;;;;;19.80;14.53;;;;;;;;;;5052139;28;20489;-68
2023/07/10 05:07:13;;;;;;;14.70;12.85;;;;;;;;;;5056016;28;20503;-66
2023/07/10 05:09:38;;;;;;;23.60;12.57;;;;;;;;;;5072405;28;20525;-66
2023/07/10 05:12:04;;;;;;;19.23;11.27;;;;;;;;;;5070640;28;20056;-67
2023/07/10 05:14:29;;;;;;;15.20;10.55;;;;;;;;;;5071992;28;20028;-66
2023/07/10 05:16:54;;;;;;;10.83;9.70;;;;;;;;;;5070774;28;20029;-66
2023/07/10 05:19:19;;;;;;;11.43;8.40;;;;;;;;;;5072163;28;20066;-63
2023/07/10 05:21:44;;;;;;;8.93;8.02;;;;;;;;;;5070609;28;20048;-62
2023/07/10 05:24:09;;;;;;;9.70;7.83;;;;;;;;;;5072031;28;20024;-62
2023/07/10 05:26:35;;;;;;;12.75;8.25;;;;;;;;;;5070870;28;20033;-63
2023/07/10 05:29:00;;;;;;;13.90;9.07;;;;;;;;;;5071548;28;20066;-63
2023/07/10 05:31:25;;;;;;;11.90;8.27;;;;;;;;;;5070615;28;20484;-63
2023/07/10 05:33:50;;;;;;;12.20;7.70;;;;;;;;;;5071882;28;20016;-62
2023/07/10 05:36:16;;;;;;;10.33;8.27;;;;;;;;;;5069864;28;20527;-63
2023/07/10 05:38:42;;;;;;;14.85;8.88;;;;;;;;;;5071889;28;20459;-63
2023/07/10 05:41:08;;;;;;;12.90;9.63;;;;;;;;;;5070408;28;20028;-62
2023/07/10 05:43:34;;;;;;;8.95;7.63;;;;;;;;;;5071712;28;20017;-63
2023/07/10 05:45:59;;;;;;;11.65;7.82;;;;;;;;;;5063339;28;20025;-63
2023/07/10 05:48:25;;;;;;;11.55;7.28;;;;;;;;;;5030744;28;20036;-63
2023/07/10 05:50:50;;;;;;;8.52;7.07;;;;;;;;;;5031570;28;20021;-70
2023/07/10 05:53:16;;;;;;;9.48;8.38;;;;;;;;;;5029990;28;20128;-63
2023/07/10 05:55:45;;;;;;;8.73;7.40;;;;;;;;;;5031699;28;20029;-63
2023/07/10 05:58:10;;;;;;;14.48;8.00;;;;;;;;;;5029574;28;20111;-63
2023/07/10 06:00:35;;;;;;;13.10;7.53;;;;;;;;;;5031754;28;20029;-63
2023/07/10 06:03:00;;;;;;;8.80;7.45;;;;;;;;;;5030082;28;20045;-62
2023/07/10 06:05:25;;;;;;;12.07;7.20;;;;;;;;;;5031164;28;20543;-62
2023/07/10 06:07:51;;;;;;;17.40;7.93;;;;;;;;;;5029972;28;20038;-62
2023/07/10 06:10:16;;;;;;;9.30;7.73;;;;;;;;;;5031227;28;20021;-62
2023/07/10 06:12:41;;;;;;;7.82;6.20;;;;;;;;;;5029593;28;20037;-62
2023/07/10 06:15:07;;;;;;;10.95;5.30;;;;;;;;;;5031440;28;20104;-62
2023/07/10 06:17:32;;;;;;;8.73;7.22;;;;;;;;;;5029548;28;20412;-62
2023/07/10 06:19:57;;;;;;;10.97;6.73;;;;;;;;;;5041365;28;20063;-63
2023/07/10 06:22:22;;;;;;;13.10;6.20;;;;;;;;;;5059148;28;20045;-63
2023/07/10 06:24:47;;;;;;;8.60;5.78;;;;;;;;;;5066644;28;20715;-70
2023/07/10 06:27:12;;;;;;;8.82;6.10;;;;;;;;;;5048634;28;20040;-63
2023/07/10 06:29:38;;;;;;;9.55;5.78;;;;;;;;;;5050824;28;20036;-63
2023/07/10 06:32:04;;;;;;;6.78;5.78;;;;;;;;;;5049419;28;20502;-62
2023/07/10 06:34:29;;;;;;;8.15;4.75;;;;;;;;;;5050432;28;20053;-63
2023/07/10 06:36:54;;;;;;;9.20;5.00;;;;;;;;;;5051634;28;20125;-62
2023/07/10 06:39:20;;;;;;;6.68;4.22;;;;;;;;;;5070659;28;20079;-64
2023/07/10 06:41:46;;;;;;;7.75;6.25;;;;;;;;;;5069091;28;20024;-63
2023/07/10 06:44:11;;;;;;;10.15;4.95;;;;;;;;;;5070927;28;20367;-63
2023/07/10 06:46:36;;;;;;;7.13;5.78;;;;;;;;;;5056140;28;20033;-62
2023/07/10 06:49:01;;;;;;;8.00;5.20;;;;;;;;;;5050347;28;20072;-63
2023/07/10 06:51:26;;;;;;;11.47;4.27;;;;;;;;;;5049364;28;20087;-62
2023/07/10 06:53:51;;;;;;;5.70;3.55;;;;;;;;;;5050557;28;20021;-63
2023/07/10 06:56:17;;;;;;;6.33;3.33;;;;;;;;;;5048802;28;20067;-63
2023/07/10 06:58:42;;;;;;;10.23;3.40;;;;;;;;;;5050802;28;20499;-63
2023/07/10 07:01:07;;;;;;;8.10;3.15;;;;;;;;;;5049181;28;20443;-62
2023/07/10 07:03:32;;;;;;;8.13;3.45;;;;;;;;;;5050570;28;20031;-63
2023/07/10 07:05:58;;;;;;;5.47;3.67;;;;;;;;;;5049528;28;20021;-62
2023/07/10 07:08:23;;;;;;;4.35;2.47;;;;;;;;;;5067264;28;20120;-62
2023/07/10 07:10:49;;;;;;;8.10;4.10;;;;;;;;;;5069848;28;20077;-62
2023/07/10 07:13:15;;;;;;;9.75;4.25;;;;;;;;;;5068026;28;20544;-62
2023/07/10 07:15:40;;;;;;;8.77;3.28;;;;;;;;;;5069587;28;20021;-62
2023/07/10 07:18:05;;;;;;;6.83;3.93;;;;;;;;;;5068008;28;20384;-62
2023/07/10 07:20:32;;;;;;;7.05;3.30;;;;;;;;;;5069942;28;20048;-62
2023/07/10 07:22:57;;;;;;;3.45;2.55;;;;;;;;;;5068599;28;20040;-62
2023/07/10 07:25:22;;;;;;;3.80;2.60;;;;;;;;;;5070227;28;20036;-62
2023/07/10 07:27:47;;;;;;;8.55;3.05;;;;;;;;;;5068291;28;20455;-67
2023/07/10 07:30:13;;;;;;;10.55;2.75;;;;;;;;;;5072132;28;20437;-62
2023/07/10 07:32:38;;;;;;;4.55;2.35;;;;;;;;;;5072632;28;20101;-62
2023/07/10 07:35:03;;;;;;;7.13;4.07;;;;;;;;;;5073627;28;20051;-62
2023/07/10 07:37:28;;;;;;;5.82;3.03;;;;;;;;;;5072695;28;20049;-62
2023/07/10 07:39:58;;;;;;;8.83;2.93;;;;;;;;;;5074122;28;20024;-62
2023/07/10 07:42:23;;;;;;;7.65;3.47;;;;;;;;;;5072556;28;20035;-62
2023/07/10 07:44:48;;;;;;;10.23;3.83;;;;;;;;;;5074034;28;20103;-62
2023/07/10 07:47:15;;;;;;;6.97;3.17;;;;;;;;;;5053677;28;20553;-62
2023/07/10 07:49:40;;;;;;;6.85;3.13;;;;;;;;;;5053587;28;20025;-61
2023/07/10 07:52:06;;;;;;;7.63;3.15;;;;;;;;;;5052294;28;20396;-62
2023/07/10 07:54:31;;;;;;;3.47;2.20;;;;;;;;;;5053679;28;20083;-61
2023/07/10 07:56:56;;;;;;;5.63;1.90;;;;;;;;;;5051846;28;20542;-62
2023/07/10 07:59:22;;;;;;;4.90;3.08;;;;;;;;;;5053893;28;20082;-61
2023/07/10 08:01:48;;;;;;;6.80;3.03;;;;;;;;;;5052402;28;20029;-63
2023/07/10 08:04:13;;;;;;;11.93;3.53;;;;;;;;;;5052915;28;20032;-62
2023/07/10 08:06:38;;;;;;;6.00;2.63;;;;;;;;;;5052402;28;20047;-62
2023/07/10 08:09:03;;;;;;;5.65;2.03;;;;;;;;;;5053641;28;20459;-62
2023/07/10 08:11:28;;;;;;;6.73;2.30;;;;;;;;;;5052090;28;20059;-62
2023/07/10 08:13:56;;;;;;;11.70;2.45;;;;;;;;;;5053050;28;20025;-62
2023/07/10 08:16:22;;;;;;;;;;;;;;;;;;5051221;28;20372;-62
2023/07/10 08:18:49;;;;;;;4.88;1.88;;;;;;;;;;5053378;28;20133;-62
2023/07/10 08:21:15;;;;;;;13.75;3.00;;;;;;;;;;5050510;28;20105;-62
2023/07/10 08:23:40;;;;;;;7.20;3.17;;;;;;;;;;5053443;28;20052;-62
2023/07/10 08:26:06;;;;;;;7.77;3.07;;;;;;;;;;5051372;28;20440;-61
2023/07/10 08:28:31;;;;;;;6.10;3.40;;;;;;;;;;5053032;28;20029;-62
2023/07/10 08:30:57;;;;;;;2.45;2.25;;;;;;;;;;5051660;28;20025;-62
2023/07/10 08:33:22;;;;;;;5.47;2.33;;;;;;;;;;5051323;28;20059;-62
2023/07/10 08:35:54;;;;;;;4.17;2.33;;;;;;;;;;5053011;28;20123;-69
2023/07/10 08:38:20;;;;;;;7.75;2.20;;;;;;;;;;5051551;28;20907;-62
2023/07/10 08:40:47;;;;;;;5.25;3.63;;;;;;;;;;5052620;28;20061;-62
2023/07/10 08:43:24;;;;;;;3.13;2.20;;;;;;;;;;5050902;28;20107;-62
2023/07/10 08:45:50;;;;;;;3.60;2.08;;;;;;;;;;5053142;28;20399;-62
2023/07/10 08:48:22;;;;;;;6.68;3.72;;;;;;;;;;5050892;28;20033;-62
2023/07/10 08:50:48;;;;;;;3.97;1.90;;;;;;;;;;5052755;28;20415;-62
2023/07/10 08:53:19;;;;;;;8.38;2.38;;;;;;;;;;5051098;28;20044;-62
2023/07/10 08:55:50;;;;;;;5.18;2.40;;;;;;;;;;5052337;28;20025;-62
2023/07/10 08:58:17;;;;;;;6.97;3.05;;;;;;;;;;5050987;28;20040;-62
2023/07/10 09:00:44;;;;;;;6.03;2.17;;;;;;;;;;5052567;28;20021;-62
2023/07/10 09:03:20;;;;;;;6.20;3.28;;;;;;;;;;5049243;28;20037;-62
2023/07/10 09:05:49;;;;;;;5.97;2.55;;;;;;;;;;5052407;28;20100;-62
2023/07/10 09:08:14;;;;;;;8.15;2.60;;;;;;;;;;5050957;28;20551;-62
2023/07/10 09:10:45;;;;;;;8.20;2.35;;;;;;;;;;5052662;28;20117;-62
2023/07/10 09:13:13;;;;;;;9.30;3.88;;;;;;;;;;5050627;28;20037;-62
2023/07/10 09:15:44;;;;;;;5.80;2.53;;;;;;;;;;5052343;28;20479;-62
2023/07/10 09:18:17;;;;;;;4.13;1.70;;;;;;;;;;5050156;28;20037;-62
2023/07/10 09:20:42;;;;;;;6.22;1.95;;;;;;;;;;5052013;28;20028;-62
2023/07/10 09:23:17;;;;;;;6.90;2.08;;;;;;;;;;5032471;28;20041;-62
2023/07/10 09:25:42;;;;;;;7.05;2.08;;;;;;;;;;5049455;28;20497;-62
2023/07/10 09:28:07;;;;;;;7.53;2.60;;;;;;;;;;5065941;28;20124;-69
2023/07/10 09:30:35;;;;;;;7.78;3.28;;;;;;;;;;5071966;28;20024;-62
2023/07/10 09:33:14;;;;;;;9.32;2.92;;;;;;;;;;5069940;28;20044;-62
2023/07/10 09:35:41;;;;;;;6.00;2.47;;;;;;;;;;5070586;28;20082;-62
2023/07/10 09:38:18;;;;;;;6.97;2.13;;;;;;;;;;5048848;28;20037;-62
2023/07/10 09:40:48;;;;;;;7.88;2.38;;;;;;;;;;5051799;28;20025;-63
2023/07/10 09:43:23;;;;;;;6.47;2.67;;;;;;;;;;5050022;28;20380;-63
2023/07/10 09:45:51;;;;;;;9.75;1.83;;;;;;;;;;5058452;28;20024;-62
2023/07/10 09:48:30;;;;;;;5.60;2.97;;;;;;;;;;5069598;28;20040;-62
2023/07/10 09:50:56;;;;;;;4.82;1.92;;;;;;;;;;5071480;28;20449;-62
2023/07/10 09:53:46;;;;;;;4.88;2.13;;;;;;;;;;5069205;28;20144;-62
2023/07/10 09:56:19;;;;;;;8.05;2.35;;;;;;;;;;5069669;28;20050;-63
2023/07/10 09:58:46;;;;;;;5.15;2.10;;;;;;;;;;5071853;28;20023;-63
2023/07/10 10:01:11;;;;;;;5.10;3.00;;;;;;;;;;5069744;28;20020;-62
2023/07/10 10:03:47;;;;;;;5.32;2.38;;;;;;;;;;5071239;28;20027;-63
2023/07/10 10:06:19;;;;;;;6.47;2.13;;;;;;;;;;5069622;28;20020;-63
2023/07/10 10:08:46;;;;;;;4.75;2.40;;;;;;;;;;5070936;28;20033;-62
2023/07/10 10:11:12;;;;;;;6.57;2.28;;;;;;;;;;5068148;28;20419;-62
2023/07/10 10:13:59;;;;;;;5.68;2.25;;;;;;;;;;5055879;28;20126;-63
2023/07/10 10:16:40;;;;;;;5.70;1.70;;;;;;;;;;5051866;28;20106;-63
2023/07/10 10:19:25;;;;;;;5.13;2.08;;;;;;;;;;5071010;28;20017;-63
2023/07/10 10:21:50;;;;;;;10.48;2.05;;;;;;;;;;5069486;28;20605;-63
2023/07/10 10:24:16;;;;;;;9.17;2.47;;;;;;;;;;5069868;28;20009;-63
2023/07/10 10:26:56;;;;;;;4.32;1.80;;;;;;;;;;5069839;28;20066;-63
2023/07/10 10:29:28;;;;;;;3.22;2.03;;;;;;;;;;5050804;28;20025;-62
2023/07/10 10:32:02;;;;;;;5.65;2.38;;;;;;;;;;5048076;28;20541;-63
2023/07/10 10:34:46;;;;;;;11.02;2.63;;;;;;;;;;5050806;28;20024;-63
2023/07/10 10:37:30;;;;;;;7.53;2.15;;;;;;;;;;5048943;28;20041;-63
2023/07/10 10:40:02;;;;;;;8.40;2.95;;;;;;;;;;5050428;28;20041;-63
2023/07/10 10:42:36;;;;;;;4.80;2.13;;;;;;;;;;5047917;28;20128;-63
2023/07/10 10:45:12;;;;;;;9.02;2.92;;;;;;;;;;5050710;28;20017;-63
2023/07/10 10:47:43;;;;;;;8.98;2.70;;;;;;;;;;5049077;28;20553;-64
2023/07/10 10:50:27;;;;;;;4.75;2.10;;;;;;;;;;5050605;28;20013;-63
2023/07/10 10:53:11;;;;;;;4.20;2.60;;;;;;;;;;5049184;28;20067;-63
2023/07/10 10:55:56;;;;;;;7.40;2.08;;;;;;;;;;5051051;28;20555;-63
2023/07/10 10:58:34;;;;;;;11.38;2.65;;;;;;;;;;5049114;28;20128;-63
2023/07/10 11:01:19;;;;;;;6.80;2.42;;;;;;;;;;5050046;28;20021;-63
2023/07/10 11:03:46;;;;;;;11.90;2.92;;;;;;;;;;5069161;28;20032;-63
2023/07/10 11:06:21;;;;;;;4.82;1.88;;;;;;;;;;5071334;28;20028;-62
2023/07/10 11:08:49;;;;;;;5.43;2.13;;;;;;;;;;5074382;28;20025;-62
2023/07/10 11:11:14;;;;;;;;;;;;;;;;;;5073698;28;20074;-62
2023/07/10 11:13:41;;;;;;;7.57;3.10;;;;;;;;;;5074432;28;19920;-63
2023/07/10 11:16:06;;;;;;;5.82;2.88;;;;;;;;;;5071292;28;20025;-61
2023/07/10 11:18:32;;;;;;;6.97;2.28;;;;;;;;;;5074508;28;20494;-63
2023/07/10 11:21:01;;;;;;;6.32;2.22;;;;;;;;;;5072948;28;20074;-63
2023/07/10 11:23:41;;;;;;;4.28;2.22;;;;;;;;;;5072764;28;20036;-63
2023/07/10 11:26:07;;;;;;;3.28;1.80;;;;;;;;;;5072874;28;20055;-62
2023/07/10 11:28:32;;;;;;;5.30;3.25;;;;;;;;;;5074263;28;20048;-63
2023/07/10 11:31:16;;;;;;;7.05;2.05;;;;;;;;;;5074181;28;20471;-63
2023/07/10 11:33:42;;;;;;;3.88;1.63;;;;;;;;;;5072830;28;20036;-63
2023/07/10 11:36:18;;;;;;;5.80;1.77;;;;;;;;;;5072419;28;20086;-61
2023/07/10 11:38:56;;;;;;;7.57;2.35;;;;;;;;;;5070035;28;20109;-63
2023/07/10 11:41:26;;;;;;;7.32;2.20;;;;;;;;;;5052942;28;20021;-63
2023/07/10 11:43:52;;;;;;;5.88;2.83;;;;;;;;;;5063259;28;20050;-63
2023/07/10 11:46:27;;;;;;;6.50;2.88;;;;;;;;;;5061373;28;20364;-62
2023/07/10 11:48:58;;;;;;;5.78;2.65;;;;;;;;;;5053695;28;20031;-63
2023/07/10 11:51:24;;;;;;;13.98;3.00;;;;;;;;;;5052686;28;20468;-63
2023/07/10 11:54:11;;;;;;;8.48;2.88;;;;;;;;;;5051886;28;20162;-63
2023/07/10 11:56:36;;;;;;;3.05;1.27;;;;;;;;;;5050456;28;20495;-63
2023/07/10 11:59:21;;;;;;;5.78;2.53;;;;;;;;;;5053484;28;20024;-63
2023/07/10 12:01:47;;;;;;;5.45;2.00;;;;;;;;;;5051641;28;20025;-63
2023/07/10 12:04:15;;;;;;;7.15;2.05;;;;;;;;;;5052515;28;20481;-63
2023/07/10 12:06:48;;;;;;;4.45;1.95;;;;;;;;;;5052306;28;20044;-63
2023/07/10 12:09:16;;;;;;;11.10;2.50;;;;;;;;;;5053063;28;20020;-63
2023/07/10 12:11:42;;;;;;;4.47;1.77;;;;;;;;;;5052363;28;20121;-63
2023/07/10 12:14:16;;;;;;;7.70;2.10;;;;;;;;;;5053449;28;20041;-63
2023/07/10 12:16:56;;;;;;;10.65;2.35;;;;;;;;;;5050494;28;20037;-63
2023/07/10 12:19:32;;;;;;;4.93;2.53;;;;;;;;;;5053554;28;20020;-63
2023/07/10 12:21:59;;;;;;;6.90;2.35;;;;;;;;;;5051434;28;20033;-63
2023/07/10 12:24:24;;;;;;;5.75;3.55;;;;;;;;;;5053633;28;20021;-63
2023/07/10 12:26:50;;;;;;;5.82;3.28;;;;;;;;;;5051986;28;20047;-63
2023/07/10 12:29:16;;;;;;;6.70;2.05;;;;;;;;;;5052743;28;20025;-63
2023/07/10 12:31:41;;;;;;;13.23;2.53;;;;;;;;;;5051790;28;20086;-63
2023/07/10 12:34:25;;;;;;;8.02;2.72;;;;;;;;;;5053055;28;20494;-63
2023/07/10 12:36:54;;;;;;;6.13;1.90;;;;;;;;;;5051277;28;20061;-63
2023/07/10 12:39:20;;;;;;;9.40;2.47;;;;;;;;;;5053050;28;20039;-63
2023/07/10 12:41:45;;;;;;;9.20;1.98;;;;;;;;;;5048543;28;20120;-63
2023/07/10 12:44:17;;;;;;;5.30;2.15;;;;;;;;;;5052038;28;20459;-63
2023/07/10 12:46:42;;;;;;;7.00;2.15;;;;;;;;;;5037341;28;20481;-63
2023/07/10 12:49:11;;;;;;;4.60;2.37;;;;;;;;;;5031385;28;20049;-63
2023/07/10 12:51:38;;;;;;;6.70;2.10;;;;;;;;;;5030939;28;20030;-63
2023/07/10 12:54:03;;;;;;;7.78;1.92;;;;;;;;;;5032594;28;20029;-63
2023/07/10 12:56:33;;;;;;;5.47;1.73;;;;;;;;;;5031437;28;20034;-62
2023/07/10 12:59:05;;;;;;;5.43;1.92;;;;;;;;;;5032508;28;20028;-63
2023/07/10 13:01:32;;;;;;;6.82;2.38;;;;;;;;;;5031436;28;20109;-63
2023/07/10 13:04:04;;;;;;;13.73;2.50;;;;;;;;;;5032272;28;20100;-63
2023/07/10 13:06:30;;;;;;;7.57;2.88;;;;;;;;;;5030980;28;20056;-63
2023/07/10 13:08:56;;;;;;;8.93;2.97;;;;;;;;;;5032262;28;20052;-63
2023/07/10 13:11:23;;;;;;;9.70;3.55;;;;;;;;;;5031155;28;20059;-63
2023/07/10 13:13:48;;;;;;;5.72;2.33;;;;;;;;;;5032257;28;20017;-63
2023/07/10 13:16:18;;;;;;;3.50;1.90;;;;;;;;;;5030769;28;20473;-62
2023/07/10 13:18:43;;;;;;;4.47;1.70;;;;;;;;;;5032481;28;20017;-63
2023/07/10 13:21:12;;;;;;;8.23;3.00;;;;;;;;;;5030304;28;20029;-62
2023/07/10 13:23:37;;;;;;;7.43;2.45;;;;;;;;;;5032562;28;20443;-63
2023/07/10 13:26:15;;;;;;;6.33;2.70;;;;;;;;;;5032257;28;20014;-75
2023/07/10 13:28:40;;;;;;;20.85;2.55;;;;;;;;;;5050412;28;20571;-71
2023/07/10 13:31:05;;;;;;;18.80;3.47;;;;;;;;;;5051921;28;20091;-63
2023/07/10 13:33:31;;;;;;;11.80;3.00;;;;;;;;;;5050125;28;20116;-63
2023/07/10 13:35:57;;;;;;;19.27;2.58;;;;;;;;;;5050971;28;20102;-63
2023/07/10 13:38:24;;;;;;;15.52;2.17;;;;;;;;;;5050589;28;20415;-63
2023/07/10 13:40:49;;;;;;;16.05;3.00;;;;;;;;;;5051897;28;20095;-63
2023/07/10 13:43:16;;;;;;;6.07;2.17;;;;;;;;;;5049795;28;20037;-63
2023/07/10 13:45:42;;;;;;;13.48;4.38;;;;;;;;;;5051860;28;20017;-63
2023/07/10 13:48:11;;;;;;;5.45;2.90;;;;;;;;;;5050251;28;20033;-63
2023/07/10 13:50:37;;;;;;;3.33;1.60;;;;;;;;;;5051470;28;20029;-63
2023/07/10 13:53:02;;;;;;;8.35;3.55;;;;;;;;;;5050117;28;20060;-63
2023/07/10 13:55:27;;;;;;;3.08;1.80;;;;;;;;;;5051825;28;20036;-63
2023/07/10 13:57:52;;;;;;;6.20;2.28;;;;;;;;;;5050018;28;20045;-63
2023/07/10 14:00:17;;;;;;;3.85;1.73;;;;;;;;;;5050945;28;20025;-63
2023/07/10 14:02:46;;;;;;;11.83;3.23;;;;;;;;;;5049519;28;20200;-64
2023/07/10 14:05:13;;;;;;;6.85;2.78;;;;;;;;;;5068893;28;20017;-64
2023/07/10 14:07:39;;;;;;;10.43;2.95;;;;;;;;;;5062951;28;20029;-66
2023/07/10 14:10:04;;;;;;;5.80;2.28;;;;;;;;;;5051523;28;20032;-63
2023/07/10 14:12:30;;;;;;;4.78;1.77;;;;;;;;;;5049727;28;20033;-63
2023/07/10 14:14:56;;;;;;;7.93;2.47;;;;;;;;;;5050509;28;20025;-63
2023/07/10 14:17:31;;;;;;;9.83;1.97;;;;;;;;;;5049809;28;20094;-63
2023/07/10 14:19:57;;;;;;;5.07;2.25;;;;;;;;;;5050950;28;20476;-63
2023/07/10 14:22:23;;;;;;;7.00;2.97;;;;;;;;;;5049309;28;20063;-63
2023/07/10 14:24:48;;;;;;;10.85;2.90;;;;;;;;;;5051417;28;20020;-63
2023/07/10 14:27:20;;;;;;;11.70;2.10;;;;;;;;;;5049355;28;20033;-63
2023/07/10 14:29:46;;;;;;;6.03;2.53;;;;;;;;;;5050688;28;20024;-63
2023/07/10 14:32:16;;;;;;;14.38;2.95;;;;;;;;;;5049515;28;20049;-63
2023/07/10 14:34:41;;;;;;;5.50;2.25;;;;;;;;;;5050614;28;20464;-62
2023/07/10 14:37:13;;;;;;;5.47;1.40;;;;;;;;;;5048809;28;20031;-63